Time;durP1;ratioP1;P1;durP2;ratioP2;P2;SDS_P1;SDS_P2;PMS_P1;PMS_P2;Temp;Humidity;BMP_temperature;BMP_pressure;BME280_temperature;BME280_humidity;BME280_pressure;Samples;Min_cycle;Max_cycle;Signal;HPM_P1;HPM_P2
2022/04/11 00:00:50;;;;;;;9.55;7.150001;;;;;;;-0.98;100;95593.88;;;;
2022/04/11 00:01:51;;;;;;;9.55;7.150001;;;;;;;-0.98;100;95593.88;;;;
2022/04/11 00:02:51;;;;;;;9.55;7.150001;;;;;;;-0.98;100;95593.88;;;;
2022/04/11 00:03:52;;;;;;;9.55;7.150001;;;;;;;-0.98;100;95593.88;;;;
2022/04/11 00:04:52;;;;;;;9.55;7.150001;;;;;;;-0.98;100;95593.88;;;;
2022/04/11 00:05:53;;;;;;;9.55;7.150001;;;;;;;-0.98;100;95593.88;;;;
2022/04/11 00:06:54;;;;;;;9.55;7.150001;;;;;;;-0.98;100;95593.88;;;;
2022/04/11 00:07:55;;;;;;;9.55;7.150001;;;;;;;-0.98;100;95593.88;;;;
2022/04/11 00:08:55;;;;;;;9.55;7.150001;;;;;;;-0.98;100;95593.88;;;;
2022/04/11 00:09:55;;;;;;;9.55;7.150001;;;;;;;-0.98;100;95593.88;;;;
2022/04/11 00:10:56;;;;;;;10.45;7.100001;;;;;;;-1.02;100;95580.19;;;;
2022/04/11 00:11:56;;;;;;;10.45;7.100001;;;;;;;-1.02;100;95580.19;;;;
2022/04/11 00:12:57;;;;;;;10.45;7.100001;;;;;;;-1.02;100;95580.19;;;;
2022/04/11 00:14:04;;;;;;;10.45;7.100001;;;;;;;-1.02;100;95580.19;;;;
2022/04/11 00:15:05;;;;;;;10.45;7.100001;;;;;;;-1.02;100;95580.19;;;;
2022/04/11 00:16:07;;;;;;;10.45;7.100001;;;;;;;-1.02;100;95580.19;;;;
2022/04/11 00:17:07;;;;;;;10.45;7.100001;;;;;;;-1.02;100;95580.19;;;;
2022/04/11 00:18:08;;;;;;;10.45;7.100001;;;;;;;-1.02;100;95580.19;;;;
2022/04/11 00:19:09;;;;;;;10.45;7.100001;;;;;;;-1.02;100;95580.19;;;;
2022/04/11 00:20:09;;;;;;;10.45;7.100001;;;;;;;-1.02;100;95580.19;;;;
2022/04/11 00:21:11;;;;;;;10.75;6.8;;;;;;;-1.04;100;95573.8;;;;
2022/04/11 00:22:11;;;;;;;10.75;6.8;;;;;;;-1.04;100;95573.8;;;;
2022/04/11 00:23:12;;;;;;;10.75;6.8;;;;;;;-1.04;100;95573.8;;;;
2022/04/11 00:24:12;;;;;;;10.75;6.8;;;;;;;-1.04;100;95573.8;;;;
2022/04/11 00:25:13;;;;;;;10.75;6.8;;;;;;;-1.04;100;95573.8;;;;
2022/04/11 00:26:13;;;;;;;10.75;6.8;;;;;;;-1.04;100;95573.8;;;;
2022/04/11 00:27:14;;;;;;;10.75;6.8;;;;;;;-1.04;100;95573.8;;;;
2022/04/11 00:28:15;;;;;;;10.75;6.8;;;;;;;-1.04;100;95573.8;;;;
2022/04/11 00:29:15;;;;;;;10.75;6.8;;;;;;;-1.04;100;95573.8;;;;
2022/04/11 00:30:16;;;;;;;10.75;6.8;;;;;;;-1.04;100;95573.8;;;;
2022/04/11 00:31:16;;;;;;;10.75;6.8;;;;;;;-1.04;100;95573.8;;;;
2022/04/11 00:32:16;;;;;;;9.299999;7.099999;;;;;;;-1.04;100;95557.9;;;;
2022/04/11 00:33:17;;;;;;;9.299999;7.099999;;;;;;;-1.04;100;95557.9;;;;
2022/04/11 00:34:17;;;;;;;9.299999;7.099999;;;;;;;-1.04;100;95557.9;;;;
2022/04/11 00:35:18;;;;;;;9.299999;7.099999;;;;;;;-1.04;100;95557.9;;;;
2022/04/11 00:36:18;;;;;;;9.299999;7.099999;;;;;;;-1.04;100;95557.9;;;;
2022/04/11 00:37:19;;;;;;;9.299999;7.099999;;;;;;;-1.04;100;95557.9;;;;
2022/04/11 00:38:19;;;;;;;9.299999;7.099999;;;;;;;-1.04;100;95557.9;;;;
2022/04/11 00:39:20;;;;;;;9.299999;7.099999;;;;;;;-1.04;100;95557.9;;;;
2022/04/11 00:40:20;;;;;;;9.299999;7.099999;;;;;;;-1.04;100;95557.9;;;;
2022/04/11 00:41:20;;;;;;;9.299999;7.099999;;;;;;;-1.04;100;95557.9;;;;
2022/04/11 00:42:21;;;;;;;9.299999;7.099999;;;;;;;-1.04;100;95557.9;;;;
2022/04/11 00:43:27;;;;;;;9.299999;7.099999;;;;;;;-1.04;100;95557.9;;;;
2022/04/11 00:44:29;;;;;;;9.299999;7.099999;;;;;;;-1.04;100;95557.9;;;;
2022/04/11 00:45:30;;;;;;;9.299999;7.099999;;;;;;;-1.04;100;95557.9;;;;
2022/04/11 00:46:30;;;;;;;9.299999;7.099999;;;;;;;-1.04;100;95557.9;;;;
2022/04/11 00:47:31;;;;;;;9.299999;7.099999;;;;;;;-1.04;100;95557.9;;;;
2022/04/11 00:48:31;;;;;;;9.299999;7.099999;;;;;;;-1.04;100;95557.9;;;;
2022/04/11 00:49:32;;;;;;;9.299999;7.099999;;;;;;;-1.04;100;95557.9;;;;
2022/04/11 00:50:33;;;;;;;9.299999;7.099999;;;;;;;-1.04;100;95557.9;;;;
2022/04/11 00:51:33;;;;;;;9.299999;7.099999;;;;;;;-1.04;100;95557.9;;;;
2022/04/11 00:52:34;;;;;;;9.299999;7.099999;;;;;;;-1.04;100;95557.9;;;;
2022/04/11 00:53:40;;;;;;;9.950001;7.25;;;;;;;-1.24;100;95566.58;;;;
2022/04/11 00:54:44;;;;;;;9.950001;7.25;;;;;;;-1.24;100;95566.58;;;;
2022/04/11 00:55:44;;;;;;;9.950001;7.25;;;;;;;-1.24;100;95566.58;;;;
2022/04/11 00:56:45;;;;;;;9.950001;7.25;;;;;;;-1.24;100;95566.58;;;;
2022/04/11 00:57:46;;;;;;;9.950001;7.25;;;;;;;-1.24;100;95566.58;;;;
2022/04/11 00:58:47;;;;;;;9.950001;7.25;;;;;;;-1.24;100;95566.58;;;;
2022/04/11 00:59:48;;;;;;;9.950001;7.25;;;;;;;-1.24;100;95566.58;;;;
2022/04/11 01:00:49;;;;;;;9.950001;7.25;;;;;;;-1.24;100;95566.58;;;;
2022/04/11 01:01:50;;;;;;;9.950001;7.25;;;;;;;-1.24;100;95566.58;;;;
2022/04/11 01:02:50;;;;;;;9.950001;7.25;;;;;;;-1.24;100;95566.58;;;;
2022/04/11 01:03:51;;;;;;;9.950001;7.25;;;;;;;-1.24;100;95566.58;;;;
2022/04/11 01:04:52;;;;;;;9.950001;7.25;;;;;;;-1.24;100;95566.58;;;;
2022/04/11 01:05:52;;;;;;;9.950001;7.25;;;;;;;-1.24;100;95566.58;;;;
2022/04/11 01:06:53;;;;;;;9.950001;7.25;;;;;;;-1.24;100;95566.58;;;;
2022/04/11 01:07:54;;;;;;;9.950001;7.25;;;;;;;-1.24;100;95566.58;;;;
2022/04/11 01:08:59;;;;;;;9.950001;7.25;;;;;;;-1.24;100;95566.58;;;;
2022/04/11 01:10:00;;;;;;;9.950001;7.25;;;;;;;-1.24;100;95566.58;;;;
2022/04/11 01:11:00;;;;;;;9.950001;7.25;;;;;;;-1.24;100;95566.58;;;;
2022/04/11 01:12:02;;;;;;;9.950001;7.25;;;;;;;-1.24;100;95566.58;;;;
2022/04/11 01:13:03;;;;;;;9.950001;7.25;;;;;;;-1.24;100;95566.58;;;;
2022/04/11 01:14:05;;;;;;;9.950001;7.25;;;;;;;-1.24;100;95566.58;;;;
2022/04/11 01:15:05;;;;;;;9.75;6.849999;;;;;;;-1.22;100;95557.56;;;;
2022/04/11 01:16:07;;;;;;;9.75;6.849999;;;;;;;-1.22;100;95557.56;;;;
2022/04/11 01:17:08;;;;;;;9.75;6.849999;;;;;;;-1.22;100;95557.56;;;;
2022/04/11 01:18:09;;;;;;;9.75;6.849999;;;;;;;-1.22;100;95557.56;;;;
2022/04/11 01:19:09;;;;;;;9.75;6.849999;;;;;;;-1.22;100;95557.56;;;;
2022/04/11 01:20:10;;;;;;;9.75;6.849999;;;;;;;-1.22;100;95557.56;;;;
2022/04/11 01:21:14;;;;;;;9.75;6.849999;;;;;;;-1.22;100;95557.56;;;;
2022/04/11 01:22:14;;;;;;;9.75;6.849999;;;;;;;-1.22;100;95557.56;;;;
2022/04/11 01:23:14;;;;;;;9.75;6.849999;;;;;;;-1.22;100;95557.56;;;;
2022/04/11 01:24:15;;;;;;;9.75;6.849999;;;;;;;-1.22;100;95557.56;;;;
2022/04/11 01:25:21;;;;;;;10.25;7.249999;;;;;;;-1.19;100;95559.92;;;;
2022/04/11 01:26:21;;;;;;;10.25;7.249999;;;;;;;-1.19;100;95559.92;;;;
2022/04/11 01:27:22;;;;;;;10.25;7.249999;;;;;;;-1.19;100;95559.92;;;;
2022/04/11 01:28:25;;;;;;;10.25;7.249999;;;;;;;-1.19;100;95559.92;;;;
2022/04/11 01:29:25;;;;;;;10.25;7.249999;;;;;;;-1.19;100;95559.92;;;;
2022/04/11 01:30:26;;;;;;;10.25;7.249999;;;;;;;-1.19;100;95559.92;;;;
2022/04/11 01:31:27;;;;;;;10.25;7.249999;;;;;;;-1.19;100;95559.92;;;;
2022/04/11 01:32:28;;;;;;;10.25;7.249999;;;;;;;-1.19;100;95559.92;;;;
2022/04/11 01:33:29;;;;;;;10.25;7.249999;;;;;;;-1.19;100;95559.92;;;;
2022/04/11 01:34:30;;;;;;;10.25;7.249999;;;;;;;-1.19;100;95559.92;;;;
2022/04/11 01:35:31;;;;;;;10.25;7.249999;;;;;;;-1.19;100;95559.92;;;;
2022/04/11 01:36:31;;;;;;;10.25;7.249999;;;;;;;-1.19;100;95559.92;;;;
2022/04/11 01:37:32;;;;;;;10.25;7.249999;;;;;;;-1.19;100;95559.92;;;;
2022/04/11 01:38:34;;;;;;;10.25;7.249999;;;;;;;-1.19;100;95559.92;;;;
2022/04/11 01:39:34;;;;;;;10.25;7.249999;;;;;;;-1.19;100;95559.92;;;;
2022/04/11 01:40:36;;;;;;;10.25;7.249999;;;;;;;-1.19;100;95559.92;;;;
2022/04/11 01:41:37;;;;;;;10.25;7.249999;;;;;;;-1.19;100;95559.92;;;;
2022/04/11 01:42:38;;;;;;;10.25;7.249999;;;;;;;-1.19;100;95559.92;;;;
2022/04/11 01:43:38;;;;;;;10.25;7.249999;;;;;;;-1.19;100;95559.92;;;;
2022/04/11 01:44:39;;;;;;;10.25;7.249999;;;;;;;-1.19;100;95559.92;;;;
2022/04/11 01:45:39;;;;;;;10.25;7.249999;;;;;;;-1.19;100;95559.92;;;;
2022/04/11 01:46:42;;;;;;;10.75;7.099999;;;;;;;-1.16;100;95563.98;;;;
2022/04/11 01:47:42;;;;;;;10.75;7.099999;;;;;;;-1.16;100;95563.98;;;;
2022/04/11 01:48:42;;;;;;;10.75;7.099999;;;;;;;-1.16;100;95563.98;;;;
2022/04/11 01:49:45;;;;;;;10.75;7.099999;;;;;;;-1.16;100;95563.98;;;;
2022/04/11 01:50:46;;;;;;;10.75;7.099999;;;;;;;-1.16;100;95563.98;;;;
2022/04/11 01:51:47;;;;;;;10.75;7.099999;;;;;;;-1.16;100;95563.98;;;;
2022/04/11 01:52:47;;;;;;;10.75;7.099999;;;;;;;-1.16;100;95563.98;;;;
2022/04/11 01:53:48;;;;;;;10.75;7.099999;;;;;;;-1.16;100;95563.98;;;;
2022/04/11 01:54:48;;;;;;;10.75;7.099999;;;;;;;-1.16;100;95563.98;;;;
2022/04/11 01:55:49;;;;;;;10.75;7.099999;;;;;;;-1.16;100;95563.98;;;;
2022/04/11 01:56:49;;;;;;;10.75;7.099999;;;;;;;-1.16;100;95563.98;;;;
2022/04/11 01:57:50;;;;;;;10.75;6.799999;;;;;;;-1.15;100;95556.78;;;;
2022/04/11 01:58:50;;;;;;;10.75;6.799999;;;;;;;-1.15;100;95556.78;;;;
2022/04/11 01:59:50;;;;;;;10.75;6.799999;;;;;;;-1.15;100;95556.78;;;;
2022/04/11 02:00:51;;;;;;;10.75;6.799999;;;;;;;-1.15;100;95556.78;;;;
2022/04/11 02:01:51;;;;;;;10.75;6.799999;;;;;;;-1.15;100;95556.78;;;;
2022/04/11 02:02:52;;;;;;;10.75;6.799999;;;;;;;-1.15;100;95556.78;;;;
2022/04/11 02:03:52;;;;;;;10.75;6.799999;;;;;;;-1.15;100;95556.78;;;;
2022/04/11 02:04:53;;;;;;;10.75;6.799999;;;;;;;-1.15;100;95556.78;;;;
2022/04/11 02:05:53;;;;;;;10.75;6.799999;;;;;;;-1.15;100;95556.78;;;;
2022/04/11 02:06:54;;;;;;;10.75;6.799999;;;;;;;-1.15;100;95556.78;;;;
2022/04/11 02:07:54;;;;;;;10.75;6.799999;;;;;;;-1.15;100;95556.78;;;;
2022/04/11 02:08:56;;;;;;;10.05;6.5;;;;;;;-1.13;100;95546.02;;;;
2022/04/11 02:09:56;;;;;;;10.05;6.5;;;;;;;-1.13;100;95546.02;;;;
2022/04/11 02:10:57;;;;;;;10.05;6.5;;;;;;;-1.13;100;95546.02;;;;
2022/04/11 02:11:57;;;;;;;10.05;6.5;;;;;;;-1.13;100;95546.02;;;;
2022/04/11 02:12:58;;;;;;;10.05;6.5;;;;;;;-1.13;100;95546.02;;;;
2022/04/11 02:13:58;;;;;;;10.05;6.5;;;;;;;-1.13;100;95546.02;;;;
2022/04/11 02:14:59;;;;;;;10.05;6.5;;;;;;;-1.13;100;95546.02;;;;
2022/04/11 02:15:59;;;;;;;10.05;6.5;;;;;;;-1.13;100;95546.02;;;;
2022/04/11 02:17:00;;;;;;;10.05;6.5;;;;;;;-1.13;100;95546.02;;;;
2022/04/11 02:18:00;;;;;;;10.05;6.5;;;;;;;-1.13;100;95546.02;;;;
2022/04/11 02:19:01;;;;;;;8.599999;6.4;;;;;;;-1.06;100;95532.09;;;;
2022/04/11 02:20:01;;;;;;;8.599999;6.4;;;;;;;-1.06;100;95532.09;;;;
2022/04/11 02:21:02;;;;;;;8.599999;6.4;;;;;;;-1.06;100;95532.09;;;;
2022/04/11 02:22:03;;;;;;;8.599999;6.4;;;;;;;-1.06;100;95532.09;;;;
2022/04/11 02:23:04;;;;;;;8.599999;6.4;;;;;;;-1.06;100;95532.09;;;;
2022/04/11 02:24:04;;;;;;;8.599999;6.4;;;;;;;-1.06;100;95532.09;;;;
2022/04/11 02:25:06;;;;;;;8.599999;6.4;;;;;;;-1.06;100;95532.09;;;;
2022/04/11 02:26:08;;;;;;;8.599999;6.4;;;;;;;-1.06;100;95532.09;;;;
2022/04/11 02:27:08;;;;;;;8.599999;6.4;;;;;;;-1.06;100;95532.09;;;;
2022/04/11 02:28:09;;;;;;;8.599999;6.4;;;;;;;-1.06;100;95532.09;;;;
2022/04/11 02:29:09;;;;;;;8.599999;6.4;;;;;;;-1.06;100;95532.09;;;;
2022/04/11 02:30:10;;;;;;;8.4;6.200001;;;;;;;-1;100;95515.53;;;;
2022/04/11 02:31:12;;;;;;;8.4;6.200001;;;;;;;-1;100;95515.53;;;;
2022/04/11 02:32:13;;;;;;;8.4;6.200001;;;;;;;-1;100;95515.53;;;;
2022/04/11 02:33:13;;;;;;;8.4;6.200001;;;;;;;-1;100;95515.53;;;;
2022/04/11 02:34:14;;;;;;;8.4;6.200001;;;;;;;-1;100;95515.53;;;;
2022/04/11 02:35:14;;;;;;;8.4;6.200001;;;;;;;-1;100;95515.53;;;;
2022/04/11 02:36:15;;;;;;;8.4;6.200001;;;;;;;-1;100;95515.53;;;;
2022/04/11 02:37:15;;;;;;;8.4;6.200001;;;;;;;-1;100;95515.53;;;;
2022/04/11 02:38:16;;;;;;;8.4;6.200001;;;;;;;-1;100;95515.53;;;;
2022/04/11 02:39:16;;;;;;;8.4;6.200001;;;;;;;-1;100;95515.53;;;;
2022/04/11 02:40:17;;;;;;;8.9;6.000001;;;;;;;-0.95;100;95514.97;;;;
2022/04/11 02:41:18;;;;;;;8.9;6.000001;;;;;;;-0.95;100;95514.97;;;;
2022/04/11 02:42:18;;;;;;;8.9;6.000001;;;;;;;-0.95;100;95514.97;;;;
2022/04/11 02:43:20;;;;;;;8.9;6.000001;;;;;;;-0.95;100;95514.97;;;;
2022/04/11 02:44:20;;;;;;;8.9;6.000001;;;;;;;-0.95;100;95514.97;;;;
2022/04/11 02:45:21;;;;;;;8.9;6.000001;;;;;;;-0.95;100;95514.97;;;;
2022/04/11 02:46:21;;;;;;;8.9;6.000001;;;;;;;-0.95;100;95514.97;;;;
2022/04/11 02:47:22;;;;;;;8.9;6.000001;;;;;;;-0.95;100;95514.97;;;;
2022/04/11 02:48:23;;;;;;;8.9;6.000001;;;;;;;-0.95;100;95514.97;;;;
2022/04/11 02:49:23;;;;;;;8.9;6.000001;;;;;;;-0.95;100;95514.97;;;;
2022/04/11 02:50:24;;;;;;;8.9;6.000001;;;;;;;-0.95;100;95514.97;;;;
2022/04/11 02:51:24;;;;;;;7;5.15;;;;;;;-0.92;100;95501.42;;;;
2022/04/11 02:52:25;;;;;;;7;5.15;;;;;;;-0.92;100;95501.42;;;;
2022/04/11 02:53:25;;;;;;;7;5.15;;;;;;;-0.92;100;95501.42;;;;
2022/04/11 02:54:26;;;;;;;7;5.15;;;;;;;-0.92;100;95501.42;;;;
2022/04/11 02:55:26;;;;;;;7;5.15;;;;;;;-0.92;100;95501.42;;;;
2022/04/11 02:56:27;;;;;;;7;5.15;;;;;;;-0.92;100;95501.42;;;;
2022/04/11 02:57:29;;;;;;;7;5.15;;;;;;;-0.92;100;95501.42;;;;
2022/04/11 02:58:29;;;;;;;7;5.15;;;;;;;-0.92;100;95501.42;;;;
2022/04/11 02:59:30;;;;;;;7;5.15;;;;;;;-0.92;100;95501.42;;;;
2022/04/11 03:00:30;;;;;;;7;5.15;;;;;;;-0.92;100;95501.42;;;;
2022/04/11 03:01:31;;;;;;;7;5.15;;;;;;;-0.92;100;95501.42;;;;
2022/04/11 03:02:32;;;;;;;6.799999;5.200001;;;;;;;-0.97;100;95495.75;;;;
2022/04/11 03:03:32;;;;;;;6.799999;5.200001;;;;;;;-0.97;100;95495.75;;;;
2022/04/11 03:04:32;;;;;;;6.799999;5.200001;;;;;;;-0.97;100;95495.75;;;;
2022/04/11 03:05:35;;;;;;;6.799999;5.200001;;;;;;;-0.97;100;95495.75;;;;
2022/04/11 03:06:35;;;;;;;6.799999;5.200001;;;;;;;-0.97;100;95495.75;;;;
2022/04/11 03:07:36;;;;;;;6.799999;5.200001;;;;;;;-0.97;100;95495.75;;;;
2022/04/11 03:08:37;;;;;;;6.799999;5.200001;;;;;;;-0.97;100;95495.75;;;;
2022/04/11 03:09:37;;;;;;;6.799999;5.200001;;;;;;;-0.97;100;95495.75;;;;
2022/04/11 03:10:38;;;;;;;6.799999;5.200001;;;;;;;-0.97;100;95495.75;;;;
2022/04/11 03:11:38;;;;;;;6.799999;5.200001;;;;;;;-0.97;100;95495.75;;;;
2022/04/11 03:12:39;;;;;;;7.349999;5.1;;;;;;;-1.09;100;95496.62;;;;
2022/04/11 03:13:39;;;;;;;7.349999;5.1;;;;;;;-1.09;100;95496.62;;;;
2022/04/11 03:14:40;;;;;;;7.349999;5.1;;;;;;;-1.09;100;95496.62;;;;
2022/04/11 03:15:40;;;;;;;7.349999;5.1;;;;;;;-1.09;100;95496.62;;;;
2022/04/11 03:16:41;;;;;;;7.349999;5.1;;;;;;;-1.09;100;95496.62;;;;
2022/04/11 03:17:42;;;;;;;7.349999;5.1;;;;;;;-1.09;100;95496.62;;;;
2022/04/11 03:18:42;;;;;;;7.349999;5.1;;;;;;;-1.09;100;95496.62;;;;
2022/04/11 03:19:43;;;;;;;7.349999;5.1;;;;;;;-1.09;100;95496.62;;;;
2022/04/11 03:20:47;;;;;;;7.349999;5.1;;;;;;;-1.09;100;95496.62;;;;
2022/04/11 03:21:47;;;;;;;7.349999;5.1;;;;;;;-1.09;100;95496.62;;;;
2022/04/11 03:22:48;;;;;;;7.349999;5.1;;;;;;;-1.09;100;95496.62;;;;
2022/04/11 03:23:48;;;;;;;6.25;4.950001;;;;;;;-1.16;100;95490.72;;;;
2022/04/11 03:24:49;;;;;;;6.25;4.950001;;;;;;;-1.16;100;95490.72;;;;
2022/04/11 03:25:49;;;;;;;6.25;4.950001;;;;;;;-1.16;100;95490.72;;;;
2022/04/11 03:26:50;;;;;;;6.25;4.950001;;;;;;;-1.16;100;95490.72;;;;
2022/04/11 03:27:50;;;;;;;6.25;4.950001;;;;;;;-1.16;100;95490.72;;;;
2022/04/11 03:28:51;;;;;;;6.25;4.950001;;;;;;;-1.16;100;95490.72;;;;
2022/04/11 03:29:51;;;;;;;6.25;4.950001;;;;;;;-1.16;100;95490.72;;;;
2022/04/11 03:30:52;;;;;;;6.25;4.950001;;;;;;;-1.16;100;95490.72;;;;
2022/04/11 03:31:52;;;;;;;6.25;4.950001;;;;;;;-1.16;100;95490.72;;;;
2022/04/11 03:32:52;;;;;;;6.25;4.950001;;;;;;;-1.16;100;95490.72;;;;
2022/04/11 03:33:54;;;;;;;7.350001;5.299999;;;;;;;-1.2;100;95484.99;;;;
2022/04/11 03:34:55;;;;;;;7.350001;5.299999;;;;;;;-1.2;100;95484.99;;;;
2022/04/11 03:35:55;;;;;;;7.350001;5.299999;;;;;;;-1.2;100;95484.99;;;;
2022/04/11 03:36:56;;;;;;;7.350001;5.299999;;;;;;;-1.2;100;95484.99;;;;
2022/04/11 03:37:56;;;;;;;7.350001;5.299999;;;;;;;-1.2;100;95484.99;;;;
2022/04/11 03:38:57;;;;;;;7.350001;5.299999;;;;;;;-1.2;100;95484.99;;;;
2022/04/11 03:39:57;;;;;;;7.350001;5.299999;;;;;;;-1.2;100;95484.99;;;;
2022/04/11 03:40:58;;;;;;;7.350001;5.299999;;;;;;;-1.2;100;95484.99;;;;
2022/04/11 03:41:58;;;;;;;7.350001;5.299999;;;;;;;-1.2;100;95484.99;;;;
2022/04/11 03:42:59;;;;;;;7.350001;5.299999;;;;;;;-1.2;100;95484.99;;;;
2022/04/11 03:43:59;;;;;;;7.350001;5.299999;;;;;;;-1.2;100;95484.99;;;;
2022/04/11 03:45:00;;;;;;;7.55;4.95;;;;;;;-1.17;100;95476.73;;;;
2022/04/11 03:46:00;;;;;;;7.55;4.95;;;;;;;-1.17;100;95476.73;;;;
2022/04/11 03:47:00;;;;;;;7.55;4.95;;;;;;;-1.17;100;95476.73;;;;
2022/04/11 03:48:01;;;;;;;7.55;4.95;;;;;;;-1.17;100;95476.73;;;;
2022/04/11 03:49:03;;;;;;;7.55;4.95;;;;;;;-1.17;100;95476.73;;;;
2022/04/11 03:50:03;;;;;;;7.55;4.95;;;;;;;-1.17;100;95476.73;;;;
2022/04/11 03:51:04;;;;;;;7.55;4.95;;;;;;;-1.17;100;95476.73;;;;
2022/04/11 03:52:05;;;;;;;7.55;4.95;;;;;;;-1.17;100;95476.73;;;;
2022/04/11 03:53:06;;;;;;;7.55;4.95;;;;;;;-1.17;100;95476.73;;;;
2022/04/11 03:54:06;;;;;;;7.55;4.95;;;;;;;-1.17;100;95476.73;;;;
2022/04/11 03:55:07;;;;;;;6.799999;4.750001;;;;;;;-1.17;100;95473.99;;;;
2022/04/11 03:56:08;;;;;;;6.799999;4.750001;;;;;;;-1.17;100;95473.99;;;;
2022/04/11 03:57:09;;;;;;;6.799999;4.750001;;;;;;;-1.17;100;95473.99;;;;
2022/04/11 03:58:09;;;;;;;6.799999;4.750001;;;;;;;-1.17;100;95473.99;;;;
2022/04/11 03:59:10;;;;;;;6.799999;4.750001;;;;;;;-1.17;100;95473.99;;;;
2022/04/11 04:00:11;;;;;;;6.799999;4.750001;;;;;;;-1.17;100;95473.99;;;;
2022/04/11 04:01:13;;;;;;;6.799999;4.750001;;;;;;;-1.17;100;95473.99;;;;
2022/04/11 04:02:13;;;;;;;6.799999;4.750001;;;;;;;-1.17;100;95473.99;;;;
2022/04/11 04:03:14;;;;;;;6.799999;4.750001;;;;;;;-1.17;100;95473.99;;;;
2022/04/11 04:04:14;;;;;;;6.799999;4.750001;;;;;;;-1.17;100;95473.99;;;;
2022/04/11 04:05:15;;;;;;;6.799999;4.750001;;;;;;;-1.17;100;95473.99;;;;
2022/04/11 04:06:16;;;;;;;7.050001;4.8;;;;;;;-1.19;100;95464.56;;;;
2022/04/11 04:07:17;;;;;;;7.050001;4.8;;;;;;;-1.19;100;95464.56;;;;
2022/04/11 04:08:17;;;;;;;7.050001;4.8;;;;;;;-1.19;100;95464.56;;;;
2022/04/11 04:09:18;;;;;;;7.050001;4.8;;;;;;;-1.19;100;95464.56;;;;
2022/04/11 04:10:18;;;;;;;7.050001;4.8;;;;;;;-1.19;100;95464.56;;;;
2022/04/11 04:11:19;;;;;;;7.050001;4.8;;;;;;;-1.19;100;95464.56;;;;
2022/04/11 04:12:20;;;;;;;7.050001;4.8;;;;;;;-1.19;100;95464.56;;;;
2022/04/11 04:13:21;;;;;;;7.050001;4.8;;;;;;;-1.19;100;95464.56;;;;
2022/04/11 04:14:22;;;;;;;7.050001;4.8;;;;;;;-1.19;100;95464.56;;;;
2022/04/11 04:15:23;;;;;;;7.050001;4.8;;;;;;;-1.19;100;95464.56;;;;
2022/04/11 04:16:23;;;;;;;7.050001;4.8;;;;;;;-1.19;100;95464.56;;;;
2022/04/11 04:17:24;;;;;;;6.199999;4.750001;;;;;;;-1.19;100;95446.44;;;;
2022/04/11 04:18:24;;;;;;;6.199999;4.750001;;;;;;;-1.19;100;95446.44;;;;
2022/04/11 04:19:25;;;;;;;6.199999;4.750001;;;;;;;-1.19;100;95446.44;;;;
2022/04/11 04:20:26;;;;;;;6.199999;4.750001;;;;;;;-1.19;100;95446.44;;;;
2022/04/11 04:21:26;;;;;;;6.199999;4.750001;;;;;;;-1.19;100;95446.44;;;;
2022/04/11 04:22:27;;;;;;;6.199999;4.750001;;;;;;;-1.19;100;95446.44;;;;
2022/04/11 04:23:28;;;;;;;6.199999;4.750001;;;;;;;-1.19;100;95446.44;;;;
2022/04/11 04:24:28;;;;;;;6.199999;4.750001;;;;;;;-1.19;100;95446.44;;;;
2022/04/11 04:25:29;;;;;;;6.199999;4.750001;;;;;;;-1.19;100;95446.44;;;;
2022/04/11 04:26:30;;;;;;;6.199999;4.750001;;;;;;;-1.19;100;95446.44;;;;
2022/04/11 04:27:30;;;;;;;6.150001;4.5;;;;;;;-1.21;100;95437.83;;;;
2022/04/11 04:28:31;;;;;;;6.150001;4.5;;;;;;;-1.21;100;95437.83;;;;
2022/04/11 04:29:31;;;;;;;6.150001;4.5;;;;;;;-1.21;100;95437.83;;;;
2022/04/11 04:30:32;;;;;;;6.150001;4.5;;;;;;;-1.21;100;95437.83;;;;
2022/04/11 04:31:33;;;;;;;6.150001;4.5;;;;;;;-1.21;100;95437.83;;;;
2022/04/11 04:32:33;;;;;;;6.150001;4.5;;;;;;;-1.21;100;95437.83;;;;
2022/04/11 04:33:34;;;;;;;6.150001;4.5;;;;;;;-1.21;100;95437.83;;;;
2022/04/11 04:34:34;;;;;;;6.150001;4.5;;;;;;;-1.21;100;95437.83;;;;
2022/04/11 04:35:35;;;;;;;6.150001;4.5;;;;;;;-1.21;100;95437.83;;;;
2022/04/11 04:36:35;;;;;;;6.150001;4.5;;;;;;;-1.21;100;95437.83;;;;
2022/04/11 04:37:36;;;;;;;6.150001;4.5;;;;;;;-1.21;100;95437.83;;;;
2022/04/11 04:38:37;;;;;;;8.3;5.25;;;;;;;-1.24;100;95429.27;;;;
2022/04/11 04:39:37;;;;;;;8.3;5.25;;;;;;;-1.24;100;95429.27;;;;
2022/04/11 04:40:37;;;;;;;8.3;5.25;;;;;;;-1.24;100;95429.27;;;;
2022/04/11 04:41:38;;;;;;;8.3;5.25;;;;;;;-1.24;100;95429.27;;;;
2022/04/11 04:42:39;;;;;;;8.3;5.25;;;;;;;-1.24;100;95429.27;;;;
2022/04/11 04:43:39;;;;;;;8.3;5.25;;;;;;;-1.24;100;95429.27;;;;
2022/04/11 04:44:40;;;;;;;8.3;5.25;;;;;;;-1.24;100;95429.27;;;;
2022/04/11 04:45:41;;;;;;;8.3;5.25;;;;;;;-1.24;100;95429.27;;;;
2022/04/11 04:46:41;;;;;;;8.3;5.25;;;;;;;-1.24;100;95429.27;;;;
2022/04/11 04:47:41;;;;;;;8.3;5.25;;;;;;;-1.24;100;95429.27;;;;
2022/04/11 04:48:42;;;;;;;7.650001;5.299999;;;;;;;-1.24;100;95425.41;;;;
2022/04/11 04:49:42;;;;;;;7.650001;5.299999;;;;;;;-1.24;100;95425.41;;;;
2022/04/11 04:50:44;;;;;;;7.650001;5.299999;;;;;;;-1.24;100;95425.41;;;;
2022/04/11 04:51:44;;;;;;;7.650001;5.299999;;;;;;;-1.24;100;95425.41;;;;
2022/04/11 04:52:45;;;;;;;7.650001;5.299999;;;;;;;-1.24;100;95425.41;;;;
2022/04/11 04:53:45;;;;;;;7.650001;5.299999;;;;;;;-1.24;100;95425.41;;;;
2022/04/11 04:54:46;;;;;;;7.650001;5.299999;;;;;;;-1.24;100;95425.41;;;;
2022/04/11 04:55:46;;;;;;;7.650001;5.299999;;;;;;;-1.24;100;95425.41;;;;
2022/04/11 04:56:49;;;;;;;7.650001;5.299999;;;;;;;-1.24;100;95425.41;;;;
2022/04/11 04:57:49;;;;;;;7.650001;5.299999;;;;;;;-1.24;100;95425.41;;;;
2022/04/11 04:58:51;;;;;;;7.650001;5.299999;;;;;;;-1.24;100;95425.41;;;;
2022/04/11 04:59:52;;;;;;;8.200001;5.950001;;;;;;;-1.14;100;95425.17;;;;
2022/04/11 05:00:53;;;;;;;8.200001;5.950001;;;;;;;-1.14;100;95425.17;;;;
2022/04/11 05:01:53;;;;;;;8.200001;5.950001;;;;;;;-1.14;100;95425.17;;;;
2022/04/11 05:02:54;;;;;;;8.200001;5.950001;;;;;;;-1.14;100;95425.17;;;;
2022/04/11 05:03:54;;;;;;;8.200001;5.950001;;;;;;;-1.14;100;95425.17;;;;
2022/04/11 05:04:55;;;;;;;8.200001;5.950001;;;;;;;-1.14;100;95425.17;;;;
2022/04/11 05:06:02;;;;;;;8.200001;5.950001;;;;;;;-1.14;100;95425.17;;;;
2022/04/11 05:07:03;;;;;;;8.200001;5.950001;;;;;;;-1.14;100;95425.17;;;;
2022/04/11 05:08:05;;;;;;;8.200001;5.950001;;;;;;;-1.14;100;95425.17;;;;
2022/04/11 05:09:06;;;;;;;8.200001;5.950001;;;;;;;-1.14;100;95425.17;;;;
2022/04/11 05:10:07;;;;;;;8.349998;6.05;;;;;;;-0.87;100;95423.16;;;;
2022/04/11 05:11:08;;;;;;;8.349998;6.05;;;;;;;-0.87;100;95423.16;;;;
2022/04/11 05:12:09;;;;;;;8.349998;6.05;;;;;;;-0.87;100;95423.16;;;;
2022/04/11 05:13:09;;;;;;;8.349998;6.05;;;;;;;-0.87;100;95423.16;;;;
2022/04/11 05:14:10;;;;;;;8.349998;6.05;;;;;;;-0.87;100;95423.16;;;;
2022/04/11 05:15:10;;;;;;;8.349998;6.05;;;;;;;-0.87;100;95423.16;;;;
2022/04/11 05:16:12;;;;;;;8.349998;6.05;;;;;;;-0.87;100;95423.16;;;;
2022/04/11 05:17:12;;;;;;;8.349998;6.05;;;;;;;-0.87;100;95423.16;;;;
2022/04/11 05:18:13;;;;;;;8.349998;6.05;;;;;;;-0.87;100;95423.16;;;;
2022/04/11 05:19:14;;;;;;;8.349998;6.05;;;;;;;-0.87;100;95423.16;;;;
2022/04/11 05:20:14;;;;;;;8.349998;6.05;;;;;;;-0.87;100;95423.16;;;;
2022/04/11 05:21:14;;;;;;;8.05;5.699999;;;;;;;-0.54;100;95412.52;;;;
2022/04/11 05:22:15;;;;;;;8.05;5.699999;;;;;;;-0.54;100;95412.52;;;;
2022/04/11 05:23:15;;;;;;;8.05;5.699999;;;;;;;-0.54;100;95412.52;;;;
2022/04/11 05:24:18;;;;;;;8.05;5.699999;;;;;;;-0.54;100;95412.52;;;;
2022/04/11 05:25:19;;;;;;;8.05;5.699999;;;;;;;-0.54;100;95412.52;;;;
2022/04/11 05:26:19;;;;;;;8.05;5.699999;;;;;;;-0.54;100;95412.52;;;;
2022/04/11 05:27:20;;;;;;;8.05;5.699999;;;;;;;-0.54;100;95412.52;;;;
2022/04/11 05:28:20;;;;;;;8.05;5.699999;;;;;;;-0.54;100;95412.52;;;;
2022/04/11 05:29:21;;;;;;;8.05;5.699999;;;;;;;-0.54;100;95412.52;;;;
2022/04/11 05:30:21;;;;;;;8.05;5.699999;;;;;;;-0.54;100;95412.52;;;;
2022/04/11 05:31:22;;;;;;;8.05;5.699999;;;;;;;-0.54;100;95412.52;;;;
2022/04/11 05:32:22;;;;;;;8;5.200001;;;;;;;-0.14;100;95405.44;;;;
2022/04/11 05:33:23;;;;;;;8;5.200001;;;;;;;-0.14;100;95405.44;;;;
2022/04/11 05:34:23;;;;;;;8;5.200001;;;;;;;-0.14;100;95405.44;;;;
2022/04/11 05:35:23;;;;;;;8;5.200001;;;;;;;-0.14;100;95405.44;;;;
2022/04/11 05:36:24;;;;;;;8;5.200001;;;;;;;-0.14;100;95405.44;;;;
2022/04/11 05:37:24;;;;;;;8;5.200001;;;;;;;-0.14;100;95405.44;;;;
2022/04/11 05:38:25;;;;;;;8;5.200001;;;;;;;-0.14;100;95405.44;;;;
2022/04/11 05:39:26;;;;;;;8;5.200001;;;;;;;-0.14;100;95405.44;;;;
2022/04/11 05:40:26;;;;;;;8;5.200001;;;;;;;-0.14;100;95405.44;;;;
2022/04/11 05:41:27;;;;;;;8;5.200001;;;;;;;-0.14;100;95405.44;;;;
2022/04/11 05:42:27;;;;;;;5.3;4.599999;;;;;;;0.23;100;95413.26;;;;
2022/04/11 05:43:28;;;;;;;5.3;4.599999;;;;;;;0.23;100;95413.26;;;;
2022/04/11 05:44:28;;;;;;;5.3;4.599999;;;;;;;0.23;100;95413.26;;;;
2022/04/11 05:45:28;;;;;;;5.3;4.599999;;;;;;;0.23;100;95413.26;;;;
2022/04/11 05:46:29;;;;;;;5.3;4.599999;;;;;;;0.23;100;95413.26;;;;
2022/04/11 05:47:30;;;;;;;5.3;4.599999;;;;;;;0.23;100;95413.26;;;;
2022/04/11 05:48:30;;;;;;;5.3;4.599999;;;;;;;0.23;100;95413.26;;;;
2022/04/11 05:49:31;;;;;;;5.3;4.599999;;;;;;;0.23;100;95413.26;;;;